Time;durP1;ratioP1;P1;durP2;ratioP2;P2;SDS_P1;SDS_P2;PMS_P1;PMS_P2;Temp;Humidity;BMP_temperature;BMP_pressure;BME280_temperature;BME280_humidity;BME280_pressure;Samples;Min_cycle;Max_cycle;Signal;HPM_P1;HPM_P2
2022/01/29 00:00:23;;;;;;;6.40;4.30;;;;;;;2.84;100.00;100552.38;5073769;28;20198;-76
2022/01/29 00:02:50;;;;;;;6.37;3.97;;;;;;;3.02;100.00;100588.31;5074776;28;20252;-77
2022/01/29 00:05:17;;;;;;;5.50;3.80;;;;;;;2.98;100.00;100602.63;5086408;28;20689;-75
2022/01/29 00:07:44;;;;;;;5.67;3.23;;;;;;;2.99;100.00;100589.03;5085747;28;20218;-76
2022/01/29 00:10:11;;;;;;;9.70;5.20;;;;;;;3.04;100.00;100608.06;5094272;28;20198;-76
2022/01/29 00:12:38;;;;;;;4.47;3.03;;;;;;;2.83;100.00;100591.56;5074868;28;20195;-75
2022/01/29 00:15:08;;;;;;;7.53;4.33;;;;;;;2.97;100.00;100623.91;5088736;28;20714;-78
2022/01/29 00:17:35;;;;;;;2.50;2.30;;;;;;;2.88;100.00;100615.75;5094162;28;20633;-75
2022/01/29 00:20:01;;;;;;;7.10;5.20;;;;;;;2.85;100.00;100631.81;5080835;28;20191;-75
2022/01/29 00:22:28;;;;;;;3.97;3.47;;;;;;;3.04;100.00;100627.69;5093280;28;20194;-75
2022/01/29 00:24:56;;;;;;;6.00;4.07;;;;;;;2.92;100.00;100627.94;5093737;28;20190;-76
2022/01/29 00:27:25;;;;;;;4.23;3.60;;;;;;;2.88;100.00;100634.56;5079284;28;20229;-75
2022/01/29 00:29:53;;;;;;;6.43;4.23;;;;;;;2.82;100.00;100626.53;5077548;28;20201;-75
2022/01/29 00:32:22;;;;;;;6.17;4.10;;;;;;;2.92;100.00;100633.94;5093758;28;20190;-75
2022/01/29 00:34:48;;;;;;;8.10;4.17;;;;;;;2.88;100.00;100647.38;5073497;28;20311;-75
2022/01/29 00:37:15;;;;;;;13.43;5.50;;;;;;;2.88;100.00;100656.72;5073232;28;20194;-75
2022/01/29 00:39:42;;;;;;;28.60;11.73;;;;;;;2.88;100.00;100646.47;5085180;28;20254;-74
2022/01/29 00:42:09;;;;;;;5.33;2.83;;;;;;;2.92;100.00;100650.97;5092884;28;20688;-75
2022/01/29 00:44:36;;;;;;;9.33;5.43;;;;;;;2.75;100.00;100633.78;5075212;28;20586;-75
2022/01/29 00:47:03;;;;;;;3.83;3.47;;;;;;;2.91;100.00;100644.09;5080737;28;20194;-75
2022/01/29 00:49:32;;;;;;;9.33;4.47;;;;;;;2.96;100.00;100640.09;5093133;28;20187;-76
2022/01/29 00:51:58;;;;;;;6.10;4.20;;;;;;;2.84;100.00;100640.31;5093236;28;20718;-75
2022/01/29 00:54:25;;;;;;;8.23;4.10;;;;;;;2.87;100.00;100644.72;5090898;28;20622;-74
2022/01/29 00:56:52;;;;;;;5.97;4.03;;;;;;;2.83;100.00;100638.53;5092528;28;20691;-76
2022/01/29 00:59:19;;;;;;;12.40;7.47;;;;;;;2.85;100.00;100641.19;5092847;28;20202;-76
2022/01/29 01:01:45;;;;;;;8.00;4.67;;;;;;;2.85;100.00;100633.53;5092636;28;20683;-75
2022/01/29 01:04:12;;;;;;;28.07;10.90;;;;;;;2.94;100.00;100627.19;5082690;28;20737;-75
2022/01/29 01:06:40;;;;;;;5.97;3.77;;;;;;;2.98;100.00;100628.25;5083826;28;20207;-76
2022/01/29 01:09:07;;;;;;;3.87;2.70;;;;;;;2.99;100.00;100627.47;5073284;28;20611;-77
2022/01/29 01:11:34;;;;;;;9.23;4.83;;;;;;;2.90;100.00;100624.38;5073498;28;20194;-75
2022/01/29 01:14:01;;;;;;;8.43;5.07;;;;;;;2.90;100.00;100622.72;5084681;28;20194;-76
2022/01/29 01:16:28;;;;;;;8.97;4.53;;;;;;;2.90;100.00;100616.69;5092044;28;20225;-76
2022/01/29 01:18:54;;;;;;;11.23;5.93;;;;;;;2.95;100.00;100612.72;5091447;28;20194;-75
2022/01/29 01:21:21;;;;;;;21.70;9.50;;;;;;;2.89;100.00;100612.41;5085224;28;20194;-75
2022/01/29 01:23:49;;;;;;;17.73;10.03;;;;;;;2.98;100.00;100612.88;5081990;28;20328;-74
2022/01/29 01:26:16;;;;;;;16.57;10.33;;;;;;;2.90;100.00;100614.16;5073496;28;20565;-76
2022/01/29 01:28:43;;;;;;;9.07;5.73;;;;;;;2.81;100.00;100614.53;5090385;28;20194;-75
2022/01/29 01:31:10;;;;;;;4.70;4.27;;;;;;;2.86;100.00;100612.22;5091662;28;20190;-75
2022/01/29 01:33:36;;;;;;;4.53;3.40;;;;;;;2.86;100.00;100591.72;5092093;28;20562;-74
2022/01/29 01:36:06;;;;;;;13.93;5.37;;;;;;;2.79;100.00;100605.88;5090109;28;20591;-75
2022/01/29 01:38:40;;;;;;;7.70;3.63;;;;;;;2.81;100.00;100598.31;5089901;28;20196;-75
2022/01/29 01:41:12;;;;;;;5.67;3.87;;;;;;;2.86;100.00;100601.97;5090952;28;20277;-75
2022/01/29 01:43:39;;;;;;;5.73;4.50;;;;;;;2.78;100.00;100600.69;5071893;28;20745;-75
2022/01/29 01:46:06;;;;;;;8.43;4.30;;;;;;;2.69;100.00;100603.63;5073275;28;20217;-76
2022/01/29 01:48:33;;;;;;;4.63;4.23;;;;;;;2.79;100.00;100597.31;5071873;28;20191;-77
2022/01/29 01:51:00;;;;;;;6.50;4.07;;;;;;;2.71;100.00;100611.41;5088795;28;20201;-76
2022/01/29 01:53:27;;;;;;;13.97;6.57;;;;;;;2.68;100.00;100596.75;5084417;28;20190;-76
2022/01/29 01:55:54;;;;;;;5.80;4.37;;;;;;;2.68;100.00;100606.09;5076655;28;20736;-77
2022/01/29 01:58:22;;;;;;;3.63;3.30;;;;;;;2.60;100.00;100584.34;5071748;28;20191;-75
2022/01/29 02:00:49;;;;;;;7.83;4.57;;;;;;;2.61;100.00;100604.00;5087147;28;20695;-75
2022/01/29 02:03:16;;;;;;;8.67;5.23;;;;;;;2.65;100.00;100595.69;5088056;28;20619;-74
2022/01/29 02:05:45;;;;;;;32.13;14.27;;;;;;;2.65;100.00;100617.06;5072740;28;20194;-75
2022/01/29 02:08:14;;;;;;;14.17;8.43;;;;;;;2.59;100.00;100608.16;5081837;28;20643;-75
2022/01/29 02:10:44;;;;;;;4.23;2.93;;;;;;;2.58;100.00;100606.41;5091752;28;20228;-76
2022/01/29 02:13:11;;;;;;;9.03;6.23;;;;;;;2.59;100.00;100615.84;5086974;28;20194;-75
2022/01/29 02:15:39;;;;;;;10.90;3.77;;;;;;;2.58;100.00;100608.94;5080089;28;20230;-76
2022/01/29 02:18:12;;;;;;;13.97;9.73;;;;;;;2.48;100.00;100617.81;5091356;28;20202;-75
2022/01/29 02:20:40;;;;;;;7.40;5.80;;;;;;;2.40;100.00;100619.94;5091630;28;20202;-74
2022/01/29 02:23:08;;;;;;;8.80;6.23;;;;;;;2.37;100.00;100619.78;5088277;28;20194;-75
2022/01/29 02:25:38;;;;;;;3.50;3.27;;;;;;;2.45;100.00;100623.66;5071761;28;20195;-76
2022/01/29 02:28:07;;;;;;;4.90;3.77;;;;;;;2.44;100.00;100631.22;5075070;28;20568;-75
2022/01/29 02:30:35;;;;;;;4.97;3.80;;;;;;;2.47;100.00;100627.16;5084579;28;20198;-74
2022/01/29 02:33:05;;;;;;;6.90;4.90;;;;;;;2.45;100.00;100623.66;5088624;28;20198;-75
2022/01/29 02:35:32;;;;;;;5.20;3.83;;;;;;;2.44;100.00;100632.13;5078833;28;20205;-75
2022/01/29 02:37:59;;;;;;;4.67;3.63;;;;;;;2.36;100.00;100630.78;5089575;28;20201;-76
2022/01/29 02:40:28;;;;;;;10.30;4.90;;;;;;;2.30;100.00;100633.03;5088951;28;20222;-76
2022/01/29 02:42:56;;;;;;;7.93;4.83;;;;;;;2.37;100.00;100627.44;5081397;28;20194;-75
2022/01/29 02:45:26;;;;;;;3.50;3.20;;;;;;;2.37;100.00;100619.78;5091194;28;20673;-75
2022/01/29 02:47:52;;;;;;;7.83;4.80;;;;;;;2.36;100.00;100628.25;5091295;28;20633;-75
2022/01/29 02:50:19;;;;;;;7.10;4.23;;;;;;;2.37;100.00;100624.91;5071593;28;20187;-75
2022/01/29 02:52:46;;;;;;;1.63;1.63;;;;;;;2.44;100.00;100624.44;5071529;28;20202;-77
2022/01/29 02:55:13;;;;;;;9.60;4.63;;;;;;;2.41;100.00;100629.38;5077712;28;20191;-75
2022/01/29 02:57:41;;;;;;;4.40;3.67;;;;;;;2.38;100.00;100636.91;5090779;28;20222;-75
2022/01/29 03:00:10;;;;;;;9.83;5.13;;;;;;;2.33;100.00;100645.09;5091186;28;20582;-74
2022/01/29 03:02:38;;;;;;;6.67;5.13;;;;;;;2.29;100.00;100650.81;5090918;28;20281;-75
2022/01/29 03:05:05;;;;;;;6.67;4.23;;;;;;;2.13;100.00;100613.28;5074649;28;20234;-76
2022/01/29 03:07:32;;;;;;;3.83;3.50;;;;;;;2.26;100.00;100636.19;5073825;28;20717;-75
2022/01/29 03:09:59;;;;;;;9.33;4.17;;;;;;;2.29;100.00;100646.59;5093508;28;20246;-76
2022/01/29 03:12:26;;;;;;;5.17;4.07;;;;;;;2.27;100.00;100643.09;5082645;28;20199;-74
2022/01/29 03:14:54;;;;;;;4.70;3.53;;;;;;;2.39;100.00;100642.91;5087793;28;20191;-76
2022/01/29 03:17:21;;;;;;;4.63;3.87;;;;;;;2.31;100.00;100639.91;5074934;28;20227;-76
2022/01/29 03:19:48;;;;;;;5.53;4.60;;;;;;;2.36;100.00;100633.34;5090471;28;20191;-75
2022/01/29 03:22:15;;;;;;;3.83;3.33;;;;;;;2.33;100.00;100634.84;5074515;28;20661;-74
2022/01/29 03:24:41;;;;;;;5.67;4.07;;;;;;;2.42;100.00;100641.41;5089827;28;20259;-74
2022/01/29 03:27:08;;;;;;;3.53;3.20;;;;;;;2.40;100.00;100642.09;5079080;28;20202;-75
2022/01/29 03:29:35;;;;;;;5.67;3.50;;;;;;;2.41;100.00;100641.31;5074325;28;20233;-74
2022/01/29 03:32:04;;;;;;;4.10;3.77;;;;;;;2.36;100.00;100643.59;5074455;28;20253;-75
2022/01/29 03:34:31;;;;;;;4.00;3.60;;;;;;;2.40;100.00;100645.53;5086832;28;20198;-76
2022/01/29 03:36:58;;;;;;;11.87;6.47;;;;;;;2.39;100.00;100648.88;5074554;28;20223;-75
2022/01/29 03:39:26;;;;;;;16.20;7.97;;;;;;;2.37;100.00;100644.47;5075441;28;20665;-74
2022/01/29 03:41:54;;;;;;;5.10;3.93;;;;;;;2.29;100.00;100656.84;5074558;28;20199;-76
2022/01/29 03:44:21;;;;;;;10.23;6.63;;;;;;;2.25;100.00;100665.13;5085496;28;20197;-75
2022/01/29 03:46:48;;;;;;;4.67;4.27;;;;;;;2.29;100.00;100669.63;5094761;28;20194;-76
2022/01/29 03:49:16;;;;;;;6.07;3.97;;;;;;;2.32;100.00;100676.63;5094036;28;20237;-76
2022/01/29 03:51:43;;;;;;;9.20;5.10;;;;;;;2.23;100.00;100670.94;5092879;28;20209;-75
2022/01/29 03:54:10;;;;;;;5.20;4.17;;;;;;;1.92;100.00;100643.63;5081558;28;20662;-74
2022/01/29 03:56:37;;;;;;;5.73;4.77;;;;;;;2.21;100.00;100675.97;5092645;28;20217;-75
2022/01/29 03:59:04;;;;;;;6.80;5.23;;;;;;;2.25;100.00;100665.13;5092728;28;20201;-75
2022/01/29 04:01:31;;;;;;;9.47;6.97;;;;;;;2.18;100.00;100667.25;5073851;28;20199;-77
2022/01/29 04:03:58;;;;;;;5.30;4.80;;;;;;;2.10;100.00;100673.63;5084226;28;20199;-74
2022/01/29 04:06:26;;;;;;;6.40;4.50;;;;;;;2.15;100.00;100661.94;5074031;28;20652;-76
2022/01/29 04:08:53;;;;;;;4.80;4.27;;;;;;;2.15;100.00;100660.28;5076769;28;20203;-75
2022/01/29 04:11:22;;;;;;;3.80;3.37;;;;;;;2.03;100.00;100667.28;5088679;28;20198;-75
2022/01/29 04:13:49;;;;;;;5.83;4.53;;;;;;;1.99;100.00;100670.44;5087261;28;20198;-76
2022/01/29 04:16:17;;;;;;;5.00;4.57;;;;;;;2.08;100.00;100678.63;5089243;28;20708;-76
2022/01/29 04:18:44;;;;;;;4.80;4.03;;;;;;;2.15;100.00;100683.31;5093332;28;20256;-76
2022/01/29 04:21:11;;;;;;;5.20;4.33;;;;;;;2.06;100.00;100687.91;5079686;28;20201;-75
2022/01/29 04:23:39;;;;;;;7.23;4.17;;;;;;;2.08;100.00;100686.28;5073856;28;20273;-76
2022/01/29 04:26:06;;;;;;;4.27;3.03;;;;;;;2.03;100.00;100692.84;5084294;28;20560;-75
2022/01/29 04:28:38;;;;;;;3.37;3.20;;;;;;;2.13;100.00;100690.03;5074273;28;20198;-75
2022/01/29 04:31:10;;;;;;;4.40;4.00;;;;;;;2.07;100.00;100696.47;5082765;28;20187;-75
2022/01/29 04:33:36;;;;;;;4.63;3.37;;;;;;;2.12;100.00;100698.47;5093487;28;20201;-76
2022/01/29 04:36:06;;;;;;;6.77;4.90;;;;;;;2.08;100.00;100701.63;5093130;28;20198;-75
2022/01/29 04:38:33;;;;;;;9.10;6.67;;;;;;;2.06;100.00;100702.34;5092312;28;20194;-75
2022/01/29 04:41:04;;;;;;;5.27;4.57;;;;;;;2.05;100.00;100701.47;5081495;28;20674;-75
2022/01/29 04:43:31;;;;;;;7.50;5.47;;;;;;;2.04;100.00;100709.91;5074289;28;20199;-76
2022/01/29 04:45:59;;;;;;;7.50;5.47;;;;;;;1.97;100.00;100705.25;5088889;28;20232;-75
2022/01/29 04:48:25;;;;;;;8.73;5.97;;;;;;;1.87;100.00;100685.03;5092412;28;20661;-74
2022/01/29 04:50:52;;;;;;;6.50;4.63;;;;;;;1.56;100.00;100659.34;5082966;28;20195;-74
2022/01/29 04:53:19;;;;;;;15.33;8.20;;;;;;;1.99;100.00;100707.13;5073765;28;20187;-75
2022/01/29 04:55:46;;;;;;;18.80;8.33;;;;;;;2.06;100.00;100721.16;5085616;28;20604;-75
2022/01/29 04:58:14;;;;;;;22.10;8.43;;;;;;;2.00;100.00;100724.22;5091254;28;20222;-75
2022/01/29 05:00:41;;;;;;;12.00;5.47;;;;;;;2.08;100.00;100727.22;5084262;28;20221;-76
2022/01/29 05:03:10;;;;;;;8.67;5.47;;;;;;;2.09;100.00;100725.53;5072905;28;20252;-76
2022/01/29 05:05:37;;;;;;;7.20;5.17;;;;;;;2.05;100.00;100732.16;5072828;28;20236;-75
2022/01/29 05:08:04;;;;;;;22.70;8.53;;;;;;;2.04;100.00;100725.25;5088434;28;20543;-75
2022/01/29 05:10:32;;;;;;;9.77;6.07;;;;;;;1.77;100.00;100703.19;5080070;28;20201;-75
2022/01/29 05:13:03;;;;;;;14.77;7.07;;;;;;;1.99;100.00;100739.47;5076985;28;20631;-75
2022/01/29 05:15:38;;;;;;;21.93;12.13;;;;;;;1.97;100.00;100744.47;5078641;28;20222;-71
2022/01/29 05:29:02;;;;;;;12.37;5.90;;;;;;;2.02;100.00;100757.56;5089955;28;20196;-74
2022/01/29 05:31:30;;;;;;;6.57;5.40;;;;;;;2.06;100.00;100749.28;5090036;28;20194;-74
2022/01/29 05:33:57;;;;;;;3.93;3.60;;;;;;;1.73;100.00;100691.91;5075246;28;20198;-74
2022/01/29 05:36:24;;;;;;;10.57;5.97;;;;;;;1.88;100.00;100740.50;5092039;28;20676;-74
2022/01/29 05:38:51;;;;;;;9.87;4.67;;;;;;;1.95;100.00;100757.97;5091091;28;20672;-74
2022/01/29 05:41:18;;;;;;;8.87;6.20;;;;;;;1.91;100.00;100771.38;5078467;28;20198;-74
2022/01/29 05:43:44;;;;;;;10.50;4.23;;;;;;;1.92;100.00;100761.25;5072263;28;20213;-74
2022/01/29 05:46:11;;;;;;;8.07;5.43;;;;;;;1.78;100.00;100725.41;5087027;28;20199;-74
2022/01/29 05:48:40;;;;;;;5.40;4.30;;;;;;;2.13;100.00;100773.53;5071939;28;20202;-76
2022/01/29 05:51:07;;;;;;;8.73;5.30;;;;;;;2.18;100.00;100780.66;5071806;28;20582;-74
2022/01/29 05:53:34;;;;;;;5.73;4.63;;;;;;;2.20;100.00;100774.00;5090763;28;20198;-74
2022/01/29 05:56:02;;;;;;;4.53;3.47;;;;;;;2.06;100.00;100756.94;5075017;28;20202;-74
2022/01/29 05:58:29;;;;;;;8.53;5.13;;;;;;;2.26;100.00;100788.81;5090244;28;20290;-75
2022/01/29 06:00:55;;;;;;;16.30;7.50;;;;;;;2.22;100.00;100777.50;5091485;28;20251;-74
2022/01/29 06:03:23;;;;;;;23.17;12.40;;;;;;;2.31;100.00;100795.97;5074735;28;20203;-74
2022/01/29 06:05:51;;;;;;;23.70;11.73;;;;;;;2.33;100.00;100796.94;5071529;28;20750;-74
2022/01/29 06:08:19;;;;;;;24.87;8.03;;;;;;;2.31;100.00;100807.88;5071734;28;20217;-74
2022/01/29 06:10:46;;;;;;;50.17;18.07;;;;;;;2.09;100.00;100762.25;5072732;28;20289;-74
2022/01/29 06:13:14;;;;;;;16.17;8.50;;;;;;;2.26;100.00;100815.28;5080322;28;20187;-75
2022/01/29 06:15:43;;;;;;;11.87;6.97;;;;;;;2.23;100.00;100807.41;5085862;28;20716;-75
2022/01/29 06:18:13;;;;;;;6.87;5.63;;;;;;;2.13;100.00;100788.88;5091549;28;20217;-74
2022/01/29 06:20:40;;;;;;;8.03;6.13;;;;;;;2.19;100.00;100794.34;5091445;28;20194;-74
2022/01/29 06:23:09;;;;;;;9.70;5.70;;;;;;;2.23;100.00;100807.41;5090855;28;20190;-74
2022/01/29 06:25:36;;;;;;;7.63;5.83;;;;;;;2.27;100.00;100805.94;5087450;28;20186;-75
2022/01/29 06:28:04;;;;;;;7.40;5.30;;;;;;;2.35;100.00;100820.94;5082041;28;20573;-74
2022/01/29 06:30:31;;;;;;;5.13;4.20;;;;;;;2.30;100.00;100829.13;5087721;28;20198;-74
2022/01/29 06:32:58;;;;;;;7.20;3.87;;;;;;;2.42;100.00;100829.88;5074718;28;20194;-74
2022/01/29 06:35:25;;;;;;;5.33;4.13;;;;;;;2.52;100.00;100833.84;5091745;28;20194;-74
2022/01/29 06:37:51;;;;;;;11.27;6.83;;;;;;;2.47;100.00;100834.44;5074981;28;20233;-74
2022/01/29 06:40:19;;;;;;;8.70;5.47;;;;;;;2.63;100.00;100832.78;5075397;28;20194;-75
2022/01/29 06:42:46;;;;;;;12.80;5.97;;;;;;;2.66;100.00;100832.97;5090442;28;20703;-73
2022/01/29 06:45:13;;;;;;;7.53;5.07;;;;;;;2.70;100.00;100842.59;5088912;28;20199;-72
2022/01/29 06:47:40;;;;;;;4.70;4.00;;;;;;;2.76;100.00;100841.28;5075497;28;20199;-76
2022/01/29 06:50:07;;;;;;;10.23;6.47;;;;;;;2.75;100.00;100836.94;5075428;28;20202;-73
2022/01/29 06:52:34;;;;;;;4.93;4.27;;;;;;;2.80;100.00;100839.78;5090002;28;20205;-75
2022/01/29 06:55:01;;;;;;;8.20;4.73;;;;;;;2.87;100.00;100849.56;5094840;28;20614;-74
2022/01/29 06:57:29;;;;;;;13.10;6.30;;;;;;;2.88;100.00;100853.91;5095342;28;20229;-74
2022/01/29 06:59:56;;;;;;;5.87;4.33;;;;;;;3.04;100.00;100855.66;5090322;28;20187;-73
2022/01/29 07:02:22;;;;;;;5.53;3.70;;;;;;;3.13;100.00;100857.06;5088407;28;20251;-74
2022/01/29 07:04:49;;;;;;;31.90;11.97;;;;;;;3.03;100.00;100851.34;5081657;28;20202;-74
2022/01/29 07:07:16;;;;;;;8.80;5.33;;;;;;;2.66;100.00;100812.50;5073924;28;20229;-74
2022/01/29 07:09:43;;;;;;;13.13;5.53;;;;;;;2.92;100.00;100854.19;5074737;28;20700;-74
2022/01/29 07:12:11;;;;;;;7.07;5.47;;;;;;;2.91;100.00;100857.53;5086929;28;20193;-74
2022/01/29 07:14:41;;;;;;;9.70;7.50;;;;;;;2.73;100.00;100835.09;5081890;28;20187;-75
2022/01/29 07:17:12;;;;;;;8.13;6.30;;;;;;;2.87;100.00;100875.19;5091811;28;20625;-74
2022/01/29 07:19:40;;;;;;;7.33;5.20;;;;;;;2.67;100.00;100850.09;5093563;28;20190;-73
2022/01/29 07:22:07;;;;;;;8.10;6.50;;;;;;;2.80;100.00;100878.19;5094710;28;20194;-74
2022/01/29 07:24:35;;;;;;;18.33;13.47;;;;;;;2.86;100.00;100883.66;5094283;28;20198;-73
2022/01/29 07:27:02;;;;;;;9.10;5.90;;;;;;;3.02;100.00;100888.88;5094086;28;20201;-73
2022/01/29 07:29:29;;;;;;;8.67;5.53;;;;;;;3.13;100.00;100892.94;5095039;28;20216;-79
2022/01/29 07:31:57;;;;;;;7.63;5.40;;;;;;;3.03;100.00;100890.66;5083436;28;20187;-75
2022/01/29 07:34:24;;;;;;;5.53;4.87;;;;;;;3.03;100.00;100895.78;5074279;28;20210;-75
2022/01/29 07:36:51;;;;;;;11.80;7.13;;;;;;;3.02;100.00;100896.56;5074264;28;20201;-77
2022/01/29 07:39:18;;;;;;;7.37;5.50;;;;;;;3.10;100.00;100900.47;5073996;28;20257;-75
2022/01/29 07:41:45;;;;;;;20.00;6.07;;;;;;;3.10;100.00;100903.03;5074330;28;20191;-75
2022/01/29 07:44:12;;;;;;;9.23;5.70;;;;;;;3.06;100.00;100895.06;5087977;28;20194;-75
2022/01/29 07:46:39;;;;;;;9.63;5.47;;;;;;;3.11;100.00;100907.31;5080034;28;20187;-80
2022/01/29 07:49:07;;;;;;;15.67;9.00;;;;;;;2.72;100.00;100843.56;5074732;28;20210;-80
2022/01/29 07:51:34;;;;;;;12.73;7.83;;;;;;;3.34;100.00;100906.97;5082483;28;20217;-75
2022/01/29 07:54:01;;;;;;;47.73;19.17;;;;;;;3.49;100.00;100905.28;5094517;28;20194;-71
2022/01/29 07:56:28;;;;;;;12.97;7.57;;;;;;;3.38;100.00;100867.91;5090186;28;20205;-73
2022/01/29 07:58:55;;;;;;;14.50;8.40;;;;;;;3.70;100.00;100897.00;5072149;28;20233;-72
2022/01/29 08:01:22;;;;;;;6.77;5.13;;;;;;;3.33;100.00;100860.75;5073789;28;20202;-73
2022/01/29 08:03:50;;;;;;;14.13;5.77;;;;;;;3.45;100.00;100885.41;5073853;28;20194;-72
2022/01/29 08:06:21;;;;;;;18.57;9.00;;;;;;;3.56;100.00;100885.09;5073361;28;20665;-73
2022/01/29 08:08:49;;;;;;;9.60;5.90;;;;;;;3.53;100.00;100887.50;5072960;28;20230;-73
2022/01/29 08:11:16;;;;;;;11.43;5.83;;;;;;;3.56;100.00;100887.66;5074329;28;20195;-74
2022/01/29 08:13:46;;;;;;;14.73;6.17;;;;;;;3.67;100.00;100892.59;5091885;28;20198;-72
2022/01/29 08:16:13;;;;;;;9.50;6.00;;;;;;;3.71;100.00;100894.50;5092509;28;20627;-72
2022/01/29 08:18:41;;;;;;;9.70;5.93;;;;;;;3.84;100.00;100883.25;5093458;28;20628;-73
2022/01/29 08:21:08;;;;;;;9.23;6.53;;;;;;;3.86;100.00;100899.59;5081256;28;20197;-73
2022/01/29 08:23:36;;;;;;;8.63;5.13;;;;;;;3.94;100.00;100888.06;5073327;28;20199;-72
2022/01/29 08:26:03;;;;;;;54.97;21.27;;;;;;;4.08;100.00;100905.09;5072663;28;20187;-73
2022/01/29 08:28:30;;;;;;;9.33;6.30;;;;;;;4.17;100.00;100912.41;5073038;28;20207;-72
2022/01/29 08:30:57;;;;;;;8.43;4.77;;;;;;;4.26;100.00;100915.47;5077591;28;20186;-72
2022/01/29 08:33:23;;;;;;;15.73;9.73;;;;;;;4.27;100.00;100910.44;5091298;28;20190;-71
2022/01/29 08:35:50;;;;;;;15.03;8.57;;;;;;;4.36;100.00;100918.59;5072331;28;20194;-71
2022/01/29 08:38:17;;;;;;;36.23;18.20;;;;;;;4.18;100.00;100921.88;5072114;28;20218;-72
2022/01/29 08:40:46;;;;;;;11.17;7.70;;;;;;;4.15;100.00;100927.72;5072887;28;20202;-70
2022/01/29 08:43:12;;;;;;;17.30;9.53;;;;;;;4.12;100.00;100930.13;5072652;28;20198;-71
2022/01/29 08:45:39;;;;;;;12.67;7.20;;;;;;;4.09;100.00;100932.53;5082791;28;20708;-71
2022/01/29 08:48:06;;;;;;;8.53;6.40;;;;;;;4.03;100.00;100933.88;5071701;28;20195;-71
2022/01/29 08:50:33;;;;;;;15.57;7.30;;;;;;;3.98;100.00;100933.63;5076094;28;20577;-71
2022/01/29 08:53:00;;;;;;;25.83;16.47;;;;;;;4.02;100.00;100929.53;5092881;28;20191;-71
2022/01/29 08:55:27;;;;;;;24.90;12.43;;;;;;;4.03;100.00;100933.88;5092004;28;20205;-72
2022/01/29 08:57:55;;;;;;;12.37;8.43;;;;;;;4.05;100.00;100907.50;5092713;28;20222;-72
2022/01/29 09:00:22;;;;;;;9.80;5.20;;;;;;;4.35;100.00;100939.06;5091474;28;20197;-70
2022/01/29 09:02:49;;;;;;;6.63;4.57;;;;;;;4.42;100.00;100941.16;5092123;28;20665;-71
2022/01/29 09:05:17;;;;;;;18.83;11.03;;;;;;;4.47;100.00;100940.59;5090959;28;20194;-71
2022/01/29 09:07:44;;;;;;;18.40;13.50;;;;;;;4.55;100.00;100937.53;5090362;28;20218;-72
2022/01/29 09:10:12;;;;;;;18.93;10.00;;;;;;;4.64;100.00;100938.91;5092133;28;20205;-72
2022/01/29 09:12:39;;;;;;;15.17;8.50;;;;;;;4.78;100.00;100947.34;5092506;28;20285;-72
2022/01/29 09:15:08;;;;;;;42.00;19.97;;;;;;;4.90;100.00;100945.38;5092214;28;20206;-71
2022/01/29 09:17:35;;;;;;;10.67;6.50;;;;;;;4.85;100.00;100944.28;5092348;28;20262;-72
2022/01/29 09:20:02;;;;;;;14.80;5.77;;;;;;;4.96;100.00;100943.13;5092538;28;20194;-72
2022/01/29 09:22:29;;;;;;;5.77;4.17;;;;;;;4.97;100.00;100930.34;5092622;28;20209;-72
2022/01/29 09:24:55;;;;;;;11.40;5.53;;;;;;;5.03;100.00;100939.19;5092197;28;20201;-72
2022/01/29 09:27:22;;;;;;;11.80;6.17;;;;;;;4.97;100.00;100929.47;5092281;28;20205;-72
2022/01/29 09:29:49;;;;;;;8.53;5.90;;;;;;;5.09;100.00;100939.50;5092226;28;20201;-75
2022/01/29 09:32:17;;;;;;;7.67;6.50;;;;;;;5.03;100.00;100904.06;5089992;28;20194;-72
2022/01/29 09:34:44;;;;;;;7.23;4.47;;;;;;;5.24;100.00;100940.28;5072197;28;20645;-75
2022/01/29 09:37:11;;;;;;;6.57;4.70;;;;;;;5.24;100.00;100935.13;5070983;28;20194;-72
2022/01/29 09:39:38;;;;;;;10.27;6.90;;;;;;;5.42;100.00;100939.47;5071915;28;20235;-73
2022/01/29 09:42:06;;;;;;;11.57;7.57;;;;;;;5.49;100.00;100946.66;5071528;28;20209;-72
2022/01/29 09:44:34;;;;;;;10.93;7.87;;;;;;;5.60;100.00;100936.06;5071816;28;20217;-71
2022/01/29 09:47:04;;;;;;;8.93;5.83;;;;;;;5.72;100.00;100942.66;5070679;28;20187;-75
2022/01/29 09:49:33;;;;;;;10.77;6.43;;;;;;;5.81;98.53;100940.53;5071574;28;20191;-74
2022/01/29 09:52:00;;;;;;;8.93;6.00;;;;;;;5.83;97.15;100930.28;5071547;28;20237;-74
2022/01/29 09:54:27;;;;;;;9.40;4.60;;;;;;;5.94;95.83;100934.28;5071677;28;20204;-74
2022/01/29 09:56:54;;;;;;;11.23;6.57;;;;;;;6.04;95.14;100927.88;5071059;28;20198;-76
2022/01/29 09:59:20;;;;;;;8.47;5.77;;;;;;;5.97;93.69;100924.13;5071762;28;20229;-73
2022/01/29 10:01:47;;;;;;;5.00;3.67;;;;;;;5.98;94.26;100920.75;5071764;28;20195;-74
2022/01/29 10:04:14;;;;;;;5.47;3.33;;;;;;;5.95;93.93;100916.38;5071327;28;20194;-77
2022/01/29 10:06:44;;;;;;;17.47;9.93;;;;;;;6.14;93.18;100912.91;5070997;28;20709;-75
2022/01/29 10:09:12;;;;;;;21.40;9.80;;;;;;;6.09;91.04;100891.25;5070788;28;20282;-74
2022/01/29 10:11:40;;;;;;;26.43;10.50;;;;;;;6.09;88.95;100880.97;5071275;28;20202;-72
2022/01/29 10:14:07;;;;;;;12.63;6.70;;;;;;;6.11;87.34;100897.34;5071062;28;20278;-74
2022/01/29 10:16:41;;;;;;;52.23;17.90;;;;;;;6.28;85.78;100905.81;5070910;28;20226;-73
2022/01/29 10:19:09;;;;;;;10.03;7.13;;;;;;;6.33;84.25;100896.63;5071134;28;20258;-73
2022/01/29 10:21:38;;;;;;;23.33;9.53;;;;;;;6.49;80.08;100915.38;5071512;28;20199;-73
2022/01/29 10:24:08;;;;;;;7.63;5.20;;;;;;;6.54;81.42;100914.72;5071461;28;20202;-73
2022/01/29 10:26:36;;;;;;;7.33;5.03;;;;;;;6.47;83.52;100927.34;5071152;28;20190;-74
2022/01/29 10:29:07;;;;;;;8.57;6.40;;;;;;;6.65;85.83;100921.22;5071284;28;20731;-74
2022/01/29 10:31:42;;;;;;;6.10;4.77;;;;;;;6.44;82.66;100924.63;5071203;28;20618;-75
2022/01/29 10:34:21;;;;;;;8.43;6.10;;;;;;;6.59;83.25;100913.25;5070923;28;20699;-77
2022/01/29 10:37:14;;;;;;;7.33;5.10;;;;;;;6.35;81.54;100883.00;5071123;28;20205;-74
2022/01/29 10:39:43;;;;;;;4.17;3.43;;;;;;;6.34;82.69;100919.00;5071028;28;20317;-75
2022/01/29 10:42:15;;;;;;;6.00;4.87;;;;;;;6.20;83.99;100882.31;5071035;28;20186;-75
2022/01/29 10:44:44;;;;;;;5.00;3.97;;;;;;;6.38;82.99;100923.47;5070467;28;20198;-75
2022/01/29 10:47:11;;;;;;;8.87;4.70;;;;;;;6.46;79.88;100922.09;5070975;28;20294;-74
2022/01/29 10:49:44;;;;;;;19.63;6.50;;;;;;;6.57;78.95;100922.56;5071003;28;20199;-75
2022/01/29 10:52:12;;;;;;;5.70;3.77;;;;;;;6.66;78.22;100926.47;5069612;28;20277;-74
2022/01/29 10:54:43;;;;;;;8.80;5.13;;;;;;;6.56;75.98;100897.66;5068957;28;20268;-74
2022/01/29 10:57:11;;;;;;;6.17;4.20;;;;;;;6.66;76.92;100921.31;5082840;28;20622;-78
2022/01/29 10:59:47;;;;;;;10.70;4.43;;;;;;;6.53;75.70;100928.44;5086104;28;20604;-75
2022/01/29 11:02:14;;;;;;;7.73;3.93;;;;;;;6.61;76.03;100927.06;5090582;28;20268;-74
2022/01/29 11:04:43;;;;;;;7.57;5.20;;;;;;;6.70;75.20;100919.75;5089845;28;20205;-73
2022/01/29 11:07:15;;;;;;;6.70;4.37;;;;;;;6.55;75.47;100921.63;5089796;28;20223;-74
2022/01/29 11:09:45;;;;;;;5.03;3.90;;;;;;;6.57;75.31;100920.88;5090928;28;20224;-76
2022/01/29 11:12:13;;;;;;;9.17;4.40;;;;;;;6.70;74.66;100912.00;5091095;28;20186;-73
2022/01/29 11:14:41;;;;;;;9.27;5.57;;;;;;;6.86;75.25;100924.72;5074713;28;20202;-76
2022/01/29 11:17:08;;;;;;;5.80;5.10;;;;;;;6.93;74.37;100916.44;5083003;28;20237;-73
2022/01/29 11:19:35;;;;;;;6.53;4.27;;;;;;;7.04;73.93;100917.78;5091108;28;20230;-73
2022/01/29 11:22:05;;;;;;;11.50;5.87;;;;;;;6.87;74.00;100890.41;5090743;28;20667;-73
2022/01/29 11:24:34;;;;;;;7.13;4.23;;;;;;;6.99;73.90;100921.88;5076605;28;20237;-76
2022/01/29 11:27:03;;;;;;;6.90;4.43;;;;;;;6.87;72.74;100903.31;5073136;28;20719;-75
2022/01/29 11:29:32;;;;;;;8.67;5.00;;;;;;;6.93;73.21;100916.44;5074491;28;20199;-75
2022/01/29 11:32:28;;;;;;;14.13;5.30;;;;;;;6.99;72.71;100909.00;5089269;28;20589;-76
2022/01/29 11:35:07;;;;;;;14.27;5.83;;;;;;;6.96;73.43;100912.31;5092274;28;20615;-76
2022/01/29 11:37:39;;;;;;;6.67;4.87;;;;;;;7.06;73.62;100905.84;5093479;28;20247;-75